Time;durP1;ratioP1;P1;durP2;ratioP2;P2;SDS_P1;SDS_P2;PMS_P1;PMS_P2;Temp;Humidity;BMP_temperature;BMP_pressure;BME280_temperature;BME280_humidity;BME280_pressure;Samples;Min_cycle;Max_cycle;Signal;HPM_P1;HPM_P2
2021/01/26 00:01:34;;;;;;;3.53;3.22;;;6.30;67.50;;;;;;5029693;28;20506;-74
2021/01/26 00:03:59;;;;;;;3.88;3.47;;;6.30;67.50;;;;;;5030947;28;20478;-78
2021/01/26 00:06:25;;;;;;;3.45;3.05;;;6.30;67.50;;;;;;5031443;28;20029;-75
2021/01/26 00:08:51;;;;;;;3.83;3.30;;;6.40;67.60;;;;;;5025855;28;20457;-77
2021/01/26 00:11:16;;;;;;;3.78;3.40;;;6.30;67.50;;;;;;5030244;28;20033;-75
2021/01/26 00:13:41;;;;;;;3.65;3.22;;;6.30;67.50;;;;;;5026186;28;20087;-76
2021/01/26 00:16:07;;;;;;;3.85;3.20;;;6.30;67.50;;;;;;5036276;28;20030;-76
2021/01/26 00:18:33;;;;;;;3.35;2.65;;;6.40;67.50;;;;;;5025248;28;20093;-76
2021/01/26 00:20:59;;;;;;;3.42;3.10;;;6.40;67.50;;;;;;5038608;28;20059;-78
2021/01/26 00:23:24;;;;;;;4.03;3.35;;;6.30;67.50;;;;;;5025561;28;20052;-76
2021/01/26 00:25:50;;;;;;;3.13;2.83;;;6.40;67.60;;;;;;5035863;28;20056;-77
2021/01/26 00:28:17;;;;;;;3.35;3.05;;;6.40;67.60;;;;;;5013804;28;20029;-76
2021/01/26 00:30:43;;;;;;;3.55;3.20;;;6.40;67.60;;;;;;5034572;28;20036;-75
2021/01/26 00:33:18;;;;;;;3.70;3.30;;;6.40;68.20;;;;;;5031215;28;20030;-76
2021/01/26 00:35:44;;;;;;;3.03;2.67;;;6.40;67.70;;;;;;5019649;28;20395;-78
2021/01/26 00:38:10;;;;;;;3.50;3.20;;;6.40;67.70;;;;;;5023433;28;20096;-77
2021/01/26 00:40:36;;;;;;;4.13;3.72;;;6.40;67.60;;;;;;5020974;28;20047;-77
2021/01/26 00:43:02;;;;;;;4.40;4.00;;;6.40;67.60;;;;;;5028978;28;20041;-75
2021/01/26 00:45:28;;;;;;;3.67;3.28;;;6.40;67.70;;;;;;5022613;28;20030;-75
2021/01/26 00:47:54;;;;;;;4.75;3.90;;;6.40;67.70;;;;;;5029355;28;20048;-75
2021/01/26 00:50:20;;;;;;;4.20;3.80;;;6.40;67.70;;;;;;5034746;28;20030;-75
2021/01/26 00:52:47;;;;;;;3.92;3.53;;;6.40;67.60;;;;;;5028204;28;20068;-76
2021/01/26 00:55:14;;;;;;;3.83;3.45;;;6.40;67.70;;;;;;5028936;28;20029;-75
2021/01/26 00:57:40;;;;;;;3.90;3.55;;;6.40;67.70;;;;;;5035719;28;20061;-75
2021/01/26 01:00:11;;;;;;;4.18;3.78;;;6.40;67.70;;;;;;5035466;28;20497;-75
2021/01/26 01:02:36;;;;;;;4.38;3.97;;;6.40;67.60;;;;;;5030790;28;20444;-77
2021/01/26 01:05:03;;;;;;;4.65;4.15;;;6.40;67.60;;;;;;5034838;28;20125;-75
2021/01/26 01:07:28;;;;;;;5.15;4.13;;;6.40;67.60;;;;;;5028836;28;20030;-76
2021/01/26 01:09:53;;;;;;;4.55;3.72;;;6.40;67.60;;;;;;5032583;28;20394;-76
2021/01/26 01:12:19;;;;;;;4.40;3.95;;;6.40;67.60;;;;;;5034170;28;20036;-77
2021/01/26 01:14:44;;;;;;;4.90;4.10;;;6.40;67.70;;;;;;5028910;28;20130;-77
2021/01/26 01:17:10;;;;;;;4.40;3.72;;;6.50;67.70;;;;;;5029736;28;20048;-78
2021/01/26 01:19:36;;;;;;;4.03;3.63;;;6.40;67.70;;;;;;5031088;28;20045;-75
2021/01/26 01:22:02;;;;;;;4.13;3.72;;;6.40;67.70;;;;;;5033839;28;20509;-76
2021/01/26 01:24:27;;;;;;;4.15;3.75;;;6.50;67.70;;;;;;5027547;28;20122;-76
2021/01/26 01:26:53;;;;;;;5.63;4.53;;;6.40;67.70;;;;;;5036187;28;20124;-76
2021/01/26 01:29:18;;;;;;;5.40;4.72;;;6.40;67.70;;;;;;5033443;28;20132;-76
2021/01/26 01:31:44;;;;;;;4.97;4.22;;;6.40;67.70;;;;;;5007879;28;20431;-76
2021/01/26 01:34:09;;;;;;;4.35;3.95;;;6.50;67.80;;;;;;5017963;28;20029;-77
2021/01/26 01:36:36;;;;;;;4.60;4.13;;;6.40;67.70;;;;;;4999810;28;20434;-77
2021/01/26 01:39:04;;;;;;;4.63;3.88;;;6.40;67.70;;;;;;5015298;28;20037;-76
2021/01/26 01:41:34;;;;;;;4.63;4.13;;;6.40;67.70;;;;;;5007502;28;20026;-76
2021/01/26 01:44:00;;;;;;;5.80;5.00;;;6.40;67.70;;;;;;5015822;28;20017;-76
2021/01/26 01:46:29;;;;;;;5.28;4.28;;;6.40;67.60;;;;;;5008543;28;20029;-77
2021/01/26 01:48:59;;;;;;;4.30;3.90;;;6.40;67.60;;;;;;5013571;28;20036;-77
2021/01/26 01:51:26;;;;;;;4.88;4.25;;;6.40;67.60;;;;;;5018484;28;20037;-77
2021/01/26 01:54:00;;;;;;;5.63;4.38;;;6.40;68.10;;;;;;5002155;28;20028;-77
2021/01/26 01:56:29;;;;;;;4.80;4.15;;;6.40;67.60;;;;;;5014588;28;20116;-76
2021/01/26 01:59:02;;;;;;;4.90;3.92;;;6.40;67.70;;;;;;5018695;28;20025;-77
2021/01/26 02:01:29;;;;;;;4.70;4.20;;;6.40;67.80;;;;;;5010068;28;20026;-77
2021/01/26 02:04:00;;;;;;;4.43;3.78;;;6.40;67.70;;;;;;5020708;28;20498;-76
2021/01/26 02:06:29;;;;;;;4.47;3.92;;;6.40;67.70;;;;;;5006535;28;20025;-76
2021/01/26 02:09:17;;;;;;;5.03;4.43;;;6.30;67.60;;;;;;5013846;28;20033;-76
2021/01/26 02:11:44;;;;;;;4.65;4.20;;;6.30;68.20;;;;;;5016133;28;20108;-76
2021/01/26 02:14:10;;;;;;;5.38;4.38;;;6.30;67.60;;;;;;5017486;28;20046;-76
2021/01/26 02:16:54;;;;;;;4.93;4.35;;;6.40;67.60;;;;;;5008758;28;20061;-76
2021/01/26 02:19:48;;;;;;;4.35;3.58;;;6.30;67.60;;;;;;5018022;28;20568;-77
2021/01/26 02:22:56;;;;;;;4.25;3.80;;;6.30;67.60;;;;;;5017598;28;20123;-76
2021/01/26 02:25:42;;;;;;;4.65;4.13;;;6.30;67.70;;;;;;5005659;28;20040;-76
2021/01/26 02:28:13;;;;;;;4.13;3.38;;;6.30;67.50;;;;;;4976967;28;20494;-77
2021/01/26 02:31:12;;;;;;;4.38;3.58;;;6.30;67.60;;;;;;5009290;28;20037;-76
2021/01/26 02:34:16;;;;;;;4.93;4.15;;;6.20;67.70;;;;;;5015104;28;20521;-76
2021/01/26 02:37:02;;;;;;;5.75;4.25;;;6.20;67.80;;;;;;5000374;28;20037;-76
2021/01/26 02:40:05;;;;;;;4.70;3.88;;;6.20;67.90;;;;;;5009339;28;20461;-76
2021/01/26 02:42:39;;;;;;;4.60;3.88;;;6.20;67.90;;;;;;5010421;22;20049;-77
2021/01/26 02:45:31;;;;;;;4.28;3.88;;;6.20;67.80;;;;;;5008224;28;20033;-77
2021/01/26 02:48:30;;;;;;;4.90;4.28;;;6.20;67.80;;;;;;5007908;28;20067;-77
2021/01/26 02:51:17;;;;;;;3.85;3.45;;;6.20;68.00;;;;;;5006314;28;20522;-77
2021/01/26 02:54:06;;;;;;;4.95;4.13;;;6.10;67.80;;;;;;4983907;28;20433;-77
2021/01/26 02:56:56;;;;;;;5.00;4.50;;;6.10;67.80;;;;;;4985112;28;20483;-76
2021/01/26 02:59:44;;;;;;;5.35;4.75;;;6.10;67.80;;;;;;4987695;28;20394;-77
2021/01/26 03:02:24;;;;;;;6.97;5.85;;;6.10;67.80;;;;;;4978230;28;20022;-77
2021/01/26 03:04:58;;;;;;;6.55;5.90;;;6.00;67.70;;;;;;4985974;28;20843;-77
2021/01/26 03:07:26;;;;;;;7.30;5.72;;;6.00;67.60;;;;;;4986852;28;20153;-78
2021/01/26 03:09:59;;;;;;;7.47;6.38;;;6.10;67.60;;;;;;4965592;28;20026;-78
2021/01/26 03:12:32;;;;;;;7.00;5.38;;;6.00;67.60;;;;;;4994010;28;20371;-76
2021/01/26 03:15:18;;;;;;;6.95;5.82;;;6.10;67.70;;;;;;4985316;28;20075;-78
2021/01/26 03:17:58;;;;;;;6.15;5.55;;;6.10;67.80;;;;;;4986014;28;20129;-77
2021/01/26 03:20:33;;;;;;;6.32;5.47;;;6.00;67.80;;;;;;4992307;28;20079;-77
2021/01/26 03:23:06;;;;;;;6.35;5.68;;;6.00;67.70;;;;;;4982164;28;20045;-77
2021/01/26 03:25:36;;;;;;;7.13;5.82;;;6.00;67.70;;;;;;4996598;28;20033;-78
2021/01/26 03:28:05;;;;;;;7.40;5.60;;;5.90;67.70;;;;;;4995691;28;20080;-77
2021/01/26 03:30:36;;;;;;;6.43;5.10;;;6.00;67.90;;;;;;4996376;28;20033;-77
2021/01/26 03:33:08;;;;;;;6.50;5.40;;;6.00;68.00;;;;;;4986948;28;20037;-77
2021/01/26 03:35:33;;;;;;;6.03;4.95;;;6.00;68.10;;;;;;4995840;28;20087;-77
2021/01/26 03:38:23;;;;;;;6.80;5.60;;;6.00;68.10;;;;;;4985313;28;20034;-77
2021/01/26 03:40:50;;;;;;;5.25;4.60;;;6.00;68.20;;;;;;4985776;28;20060;-77
2021/01/26 03:43:16;;;;;;;6.25;5.32;;;6.00;68.10;;;;;;4993088;28;20117;-77
2021/01/26 03:45:42;;;;;;;5.97;5.30;;;6.00;68.00;;;;;;4981940;28;20388;-78
2021/01/26 03:48:47;;;;;;;7.32;5.80;;;6.00;68.00;;;;;;4983165;28;20491;-77
2021/01/26 03:51:38;;;;;;;6.25;5.07;;;6.00;68.30;;;;;;4986985;28;20414;-79
2021/01/26 03:54:29;;;;;;;7.72;6.03;;;6.00;68.20;;;;;;4977206;28;20042;-77
2021/01/26 03:57:09;;;;;;;6.85;6.15;;;6.00;68.30;;;;;;4979351;28;20057;-77
2021/01/26 04:00:12;;;;;;;5.87;4.90;;;6.00;68.10;;;;;;4988662;28;20499;-77
2021/01/26 04:03:06;;;;;;;6.35;5.00;;;6.00;68.10;;;;;;4956118;28;20050;-77
2021/01/26 04:05:55;;;;;;;5.72;4.70;;;5.90;68.10;;;;;;4993075;28;20476;-77
2021/01/26 04:08:33;;;;;;;7.03;5.28;;;5.90;67.90;;;;;;4986660;28;20429;-77
2021/01/26 04:11:17;;;;;;;5.82;5.00;;;5.90;67.80;;;;;;4986250;28;20076;-77
2021/01/26 04:14:06;;;;;;;6.90;5.97;;;5.90;67.90;;;;;;4985030;28;20034;-77
2021/01/26 04:16:48;;;;;;;6.82;5.80;;;6.00;68.10;;;;;;4993546;28;20034;-78
2021/01/26 04:19:21;;;;;;;6.18;5.35;;;5.90;67.90;;;;;;4990182;28;20046;-77
2021/01/26 04:21:48;;;;;;;6.72;5.88;;;5.90;68.00;;;;;;4990113;28;20034;-77
2021/01/26 04:24:14;;;;;;;7.25;5.88;;;5.90;67.90;;;;;;4989013;28;20723;-77
2021/01/26 04:26:41;;;;;;;7.45;6.25;;;5.80;67.90;;;;;;4992087;28;20045;-77
2021/01/26 04:29:07;;;;;;;5.80;5.20;;;5.80;68.00;;;;;;4988432;28;20114;-77
2021/01/26 04:31:32;;;;;;;5.00;4.45;;;5.80;68.00;;;;;;4989438;28;20132;-77
2021/01/26 04:33:58;;;;;;;6.90;5.18;;;5.80;68.10;;;;;;4991535;28;20057;-77
2021/01/26 04:36:25;;;;;;;7.55;6.15;;;5.80;68.10;;;;;;4996068;28;20029;-77
2021/01/26 04:38:50;;;;;;;6.30;5.70;;;5.80;68.10;;;;;;4990270;28;20041;-77
2021/01/26 04:41:27;;;;;;;6.55;5.78;;;5.80;68.10;;;;;;4994352;28;20100;-77
2021/01/26 04:44:25;;;;;;;7.22;6.13;;;5.80;68.10;;;;;;4985314;28;20901;-78
2021/01/26 04:47:05;;;;;;;6.35;5.32;;;5.90;68.40;;;;;;4985727;28;20065;-77
2021/01/26 04:49:40;;;;;;;;;;;5.80;68.20;;;;;;4994702;28;20427;-77
2021/01/26 04:52:21;;;;;;;7.28;5.82;;;5.70;68.40;;;;;;4984703;28;20397;-77
2021/01/26 04:54:54;;;;;;;6.63;5.93;;;5.80;67.90;;;;;;4994318;28;20088;-77
2021/01/26 04:57:48;;;;;;;6.10;4.88;;;5.80;67.90;;;;;;4987328;28;20045;-77
2021/01/26 05:00:23;;;;;;;6.32;5.47;;;5.80;68.30;;;;;;4971709;28;20428;-77
2021/01/26 05:03:20;;;;;;;7.05;5.47;;;5.80;68.10;;;;;;4991829;28;20034;-77
2021/01/26 05:05:50;;;;;;;7.60;6.15;;;5.70;68.20;;;;;;5010496;28;20636;-77
2021/01/26 05:08:24;;;;;;;5.85;5.25;;;5.70;68.10;;;;;;4992466;28;20038;-77
2021/01/26 05:10:55;;;;;;;7.30;6.55;;;5.70;68.80;;;;;;4996971;28;20084;-77
2021/01/26 05:13:26;;;;;;;7.93;6.70;;;5.70;68.20;;;;;;4996006;28;20029;-77
2021/01/26 05:16:18;;;;;;;6.95;5.65;;;5.80;68.30;;;;;;4990101;28;20439;-77
2021/01/26 05:18:48;;;;;;;6.55;5.45;;;5.80;68.40;;;;;;4984396;28;20064;-77
2021/01/26 05:21:31;;;;;;;7.43;6.45;;;5.70;68.10;;;;;;4988929;28;20057;-77
2021/01/26 05:24:02;;;;;;;7.55;6.75;;;5.80;68.20;;;;;;4985842;28;20030;-78
2021/01/26 05:26:28;;;;;;;6.82;6.13;;;5.70;68.10;;;;;;4993777;28;20034;-78
2021/01/26 05:28:53;;;;;;;8.02;6.60;;;5.70;68.10;;;;;;5001495;28;20389;-78
2021/01/26 05:31:28;;;;;;;6.85;6.13;;;5.70;68.10;;;;;;4992606;28;20030;-77
2021/01/26 05:34:12;;;;;;;8.02;6.85;;;5.70;68.10;;;;;;4977872;28;20061;-78
2021/01/26 05:36:41;;;;;;;6.55;5.85;;;5.70;68.30;;;;;;4996096;28;20530;-77
2021/01/26 05:39:13;;;;;;;8.38;6.50;;;5.70;68.10;;;;;;4993169;28;20554;-78
2021/01/26 05:41:39;;;;;;;7.68;6.65;;;5.60;68.20;;;;;;4997134;28;20038;-78
2021/01/26 05:44:05;;;;;;;7.20;6.43;;;5.60;68.20;;;;;;4990286;28;20029;-78
2021/01/26 05:46:40;;;;;;;7.80;7.00;;;5.60;68.20;;;;;;4996855;28;20037;-77
2021/01/26 05:49:06;;;;;;;7.85;6.70;;;5.60;68.20;;;;;;4991214;28;20084;-78
2021/01/26 05:51:33;;;;;;;6.68;5.97;;;5.60;68.20;;;;;;4997828;28;20026;-77
2021/01/26 05:54:13;;;;;;;8.60;7.13;;;5.60;68.30;;;;;;4996954;28;20038;-79
2021/01/26 05:56:51;;;;;;;6.95;5.78;;;5.60;68.40;;;;;;4994833;28;20072;-76
2021/01/26 05:59:33;;;;;;;8.60;6.53;;;5.70;68.60;;;;;;4987747;28;20040;-76
2021/01/26 06:02:16;;;;;;;7.20;5.82;;;5.60;68.50;;;;;;4993198;28;20100;-76
2021/01/26 06:04:42;;;;;;;7.28;5.93;;;5.60;68.50;;;;;;4996917;28;20494;-78
2021/01/26 06:07:22;;;;;;;8.48;7.10;;;5.60;68.30;;;;;;5008417;28;20037;-77
2021/01/26 06:09:49;;;;;;;7.78;6.97;;;5.60;68.50;;;;;;5007553;28;20018;-77
2021/01/26 06:12:23;;;;;;;8.60;7.10;;;5.60;68.30;;;;;;5008578;28;20033;-77
2021/01/26 06:14:55;;;;;;;8.45;6.75;;;5.60;68.40;;;;;;5007464;28;20022;-75
2021/01/26 06:17:26;;;;;;;8.27;7.22;;;5.70;68.40;;;;;;5006141;28;20038;-75
2021/01/26 06:20:24;;;;;;;9.40;7.13;;;5.60;68.40;;;;;;5003216;28;20041;-74
2021/01/26 06:22:52;;;;;;;7.93;6.47;;;5.60;68.70;;;;;;5001675;28;20499;-75
2021/01/26 06:25:26;;;;;;;7.70;6.90;;;5.70;68.40;;;;;;5007231;28;20436;-75
2021/01/26 06:28:15;;;;;;;8.93;6.78;;;5.60;68.50;;;;;;5006139;28;20041;-75
2021/01/26 06:30:58;;;;;;;8.10;7.13;;;5.60;68.50;;;;;;5006021;28;20034;-75
2021/01/26 06:33:36;;;;;;;7.65;6.32;;;5.60;68.50;;;;;;5008963;28;20038;-75
2021/01/26 06:36:06;;;;;;;9.57;7.68;;;5.60;68.50;;;;;;5008428;28;20030;-75
2021/01/26 06:38:50;;;;;;;8.65;6.55;;;5.60;68.50;;;;;;5009342;28;20034;-74
2021/01/26 06:41:33;;;;;;;7.65;6.38;;;5.60;69.00;;;;;;5009727;28;20076;-75
2021/01/26 06:44:22;;;;;;;6.97;6.10;;;5.60;68.60;;;;;;5004890;28;20026;-74
2021/01/26 06:47:01;;;;;;;7.45;6.15;;;5.60;68.60;;;;;;5005421;28;20577;-75
2021/01/26 06:50:04;;;;;;;7.22;5.93;;;5.60;68.50;;;;;;5001770;28;20403;-75
2021/01/26 06:52:36;;;;;;;7.35;6.30;;;5.60;68.80;;;;;;4996967;28;20089;-77
2021/01/26 06:55:28;;;;;;;9.63;6.90;;;5.60;68.70;;;;;;5115170;22;20082;-75
2021/01/26 06:58:23;;;;;;;8.23;6.28;;;5.60;68.80;;;;;;5023032;28;20522;-76
2021/01/26 07:01:22;;;;;;;8.20;7.22;;;5.70;69.00;;;;;;5027859;28;20033;-76
2021/01/26 07:04:13;;;;;;;7.40;6.28;;;5.70;69.00;;;;;;5004658;28;20034;-75
2021/01/26 07:06:53;;;;;;;;;;;5.70;68.90;;;;;;5005205;28;20034;-75
2021/01/26 07:09:54;;;;;;;7.15;5.85;;;5.70;69.20;;;;;;5006040;28;20271;-77
2021/01/26 07:12:25;;;;;;;8.93;7.15;;;5.70;68.70;;;;;;5004441;28;20030;-75
2021/01/26 07:15:32;;;;;;;7.95;6.88;;;5.70;68.70;;;;;;5002349;28;20030;-75
2021/01/26 07:18:28;;;;;;;8.65;6.93;;;5.70;68.80;;;;;;4960912;28;20081;-75
2021/01/26 07:21:31;;;;;;;8.00;6.30;;;5.70;68.90;;;;;;5002950;28;20057;-75
2021/01/26 07:24:25;;;;;;;9.82;7.82;;;5.70;69.10;;;;;;4975010;28;20121;-75
2021/01/26 07:27:12;;;;;;;8.02;6.55;;;5.70;69.00;;;;;;5003228;28;20049;-74
2021/01/26 07:29:55;;;;;;;8.85;7.18;;;5.70;69.00;;;;;;4999234;28;20124;-73
2021/01/26 07:32:42;;;;;;;7.18;6.35;;;5.70;69.30;;;;;;5002223;28;20697;-73
2021/01/26 07:35:46;;;;;;;7.95;6.70;;;5.70;68.80;;;;;;5003157;28;20397;-74
2021/01/26 07:38:14;;;;;;;7.68;5.97;;;5.70;69.10;;;;;;5003386;28;20097;-74
2021/01/26 07:40:51;;;;;;;7.65;6.22;;;5.70;68.80;;;;;;5007023;28;20042;-75
2021/01/26 07:43:45;;;;;;;8.15;6.93;;;5.80;68.90;;;;;;5004775;28;20109;-76
2021/01/26 07:46:35;;;;;;;9.82;7.18;;;5.80;69.10;;;;;;4999643;28;20046;-75
2021/01/26 07:49:40;;;;;;;7.70;6.43;;;5.80;69.10;;;;;;5006634;28;20068;-75
2021/01/26 07:52:07;;;;;;;7.57;5.80;;;5.80;69.10;;;;;;5005256;28;20257;-75
2021/01/26 07:54:40;;;;;;;8.38;6.53;;;5.80;68.80;;;;;;5006534;28;20088;-75
2021/01/26 07:57:05;;;;;;;7.97;6.65;;;5.80;68.90;;;;;;5004572;28;20040;-74
2021/01/26 07:59:37;;;;;;;9.20;6.93;;;5.80;68.80;;;;;;5003105;28;20037;-76
2021/01/26 08:02:12;;;;;;;8.25;6.70;;;5.80;68.80;;;;;;4989124;28;20037;-77
2021/01/26 08:04:41;;;;;;;8.40;7.07;;;5.90;68.90;;;;;;5003112;28;20029;-74
2021/01/26 08:07:07;;;;;;;9.05;7.00;;;5.90;68.90;;;;;;5004723;28;20034;-75
2021/01/26 08:09:48;;;;;;;7.25;6.47;;;5.90;68.90;;;;;;5005951;28;20029;-75
2021/01/26 08:12:16;;;;;;;7.93;6.95;;;5.90;69.00;;;;;;5009165;28;20495;-75
2021/01/26 08:14:50;;;;;;;8.30;7.40;;;5.90;69.00;;;;;;5007087;28;20108;-76
2021/01/26 08:17:32;;;;;;;8.68;6.85;;;5.90;69.00;;;;;;5006809;28;20034;-75
2021/01/26 08:20:03;;;;;;;7.75;6.10;;;5.90;68.80;;;;;;4993540;28;20030;-76
2021/01/26 08:22:54;;;;;;;7.28;6.30;;;6.00;68.80;;;;;;5005053;28;20034;-75
2021/01/26 08:25:22;;;;;;;7.38;5.85;;;5.90;68.60;;;;;;5009655;28;20034;-76
2021/01/26 08:27:52;;;;;;;6.88;6.00;;;6.00;68.60;;;;;;5008143;28;20511;-75
2021/01/26 08:30:46;;;;;;;8.30;6.95;;;5.90;68.50;;;;;;5005878;28;20028;-74
2021/01/26 08:33:24;;;;;;;7.15;6.28;;;6.00;68.40;;;;;;5002881;28;20491;-75
2021/01/26 08:36:09;;;;;;;7.28;5.95;;;5.90;68.40;;;;;;5005408;28;20119;-74
2021/01/26 08:38:52;;;;;;;7.10;6.07;;;5.90;68.50;;;;;;5002914;28;20061;-75
2021/01/26 08:41:40;;;;;;;6.45;5.70;;;5.90;69.00;;;;;;5006974;28;20026;-75
2021/01/26 08:44:17;;;;;;;8.35;6.53;;;5.80;68.50;;;;;;5004175;28;20034;-75
2021/01/26 08:46:43;;;;;;;6.93;6.20;;;5.70;68.20;;;;;;5004942;28;20089;-75
2021/01/26 08:49:28;;;;;;;7.88;6.65;;;5.80;68.30;;;;;;5006606;28;20037;-74
2021/01/26 08:54:38;;;;;;;8.15;6.78;;;5.70;68.50;;;;;;5075730;22;20590;-75
2021/01/26 08:57:19;;;;;;;7.80;6.65;;;5.70;68.80;;;;;;5023127;28;20029;-76
2021/01/26 08:59:45;;;;;;;7.97;6.80;;;5.70;68.90;;;;;;5025594;28;20046;-75
2021/01/26 09:02:31;;;;;;;6.78;6.00;;;5.70;68.70;;;;;;5024020;28;20042;-75
2021/01/26 09:04:57;;;;;;;7.68;6.38;;;5.70;69.00;;;;;;5006312;28;20034;-76
2021/01/26 09:07:54;;;;;;;7.32;5.93;;;5.70;68.80;;;;;;4998085;28;20434;-77
2021/01/26 09:10:37;;;;;;;7.13;5.68;;;5.70;69.10;;;;;;4998277;28;20465;-76
2021/01/26 09:13:08;;;;;;;6.70;5.85;;;5.70;69.00;;;;;;4993793;28;20035;-76
2021/01/26 09:15:37;;;;;;;8.70;6.97;;;5.70;68.90;;;;;;4994215;28;20141;-75
2021/01/26 09:18:03;;;;;;;7.28;6.40;;;5.70;69.00;;;;;;4994203;28;20039;-77
2021/01/26 09:20:32;;;;;;;9.20;7.80;;;5.70;69.00;;;;;;4994289;28;20045;-75
2021/01/26 09:23:01;;;;;;;9.32;6.50;;;5.70;69.10;;;;;;4993919;28;20069;-75
2021/01/26 09:25:34;;;;;;;8.20;6.85;;;5.80;69.80;;;;;;5005277;28;20076;-75
2021/01/26 09:28:11;;;;;;;7.97;6.35;;;5.80;69.40;;;;;;5012214;28;20030;-74
2021/01/26 09:30:39;;;;;;;8.85;7.80;;;5.80;69.50;;;;;;5011640;28;20054;-75
2021/01/26 09:33:10;;;;;;;12.50;9.88;;;5.90;69.60;;;;;;5011726;28;20054;-75
2021/01/26 09:35:39;;;;;;;13.50;10.57;;;5.90;69.70;;;;;;4995562;28;20038;-75
2021/01/26 09:38:07;;;;;;;14.10;10.90;;;5.90;69.60;;;;;;4995178;28;20030;-75
2021/01/26 09:40:34;;;;;;;10.70;8.85;;;6.00;69.60;;;;;;4995432;28;20049;-75
2021/01/26 09:43:16;;;;;;;10.27;8.48;;;6.00;69.50;;;;;;4995846;28;20031;-77
2021/01/26 09:45:42;;;;;;;9.63;8.30;;;6.00;69.60;;;;;;4989832;28;20035;-74
2021/01/26 09:48:13;;;;;;;8.68;7.75;;;6.10;69.50;;;;;;4997080;28;20053;-75
2021/01/26 09:50:39;;;;;;;9.07;7.88;;;6.10;69.50;;;;;;4999545;28;20044;-73
2021/01/26 09:53:06;;;;;;;10.27;7.97;;;6.10;69.40;;;;;;5003725;28;20034;-74
2021/01/26 09:55:32;;;;;;;9.70;8.18;;;6.20;69.60;;;;;;5005846;28;20543;-73
2021/01/26 09:57:58;;;;;;;12.32;9.55;;;6.30;69.70;;;;;;5021510;28;20037;-73
2021/01/26 10:00:27;;;;;;;10.40;7.55;;;6.20;69.70;;;;;;5015992;28;20506;-75
2021/01/26 10:02:56;;;;;;;9.90;8.32;;;6.30;69.90;;;;;;5005555;28;20610;-74
2021/01/26 10:05:26;;;;;;;8.18;6.90;;;6.40;70.00;;;;;;5002549;28;20022;-73
2021/01/26 10:08:33;;;;;;;7.72;6.93;;;6.50;70.10;;;;;;5020486;28;20036;-76
2021/01/26 10:11:18;;;;;;;8.77;7.18;;;6.50;70.40;;;;;;4996061;28;20056;-74
2021/01/26 10:13:45;;;;;;;9.25;7.28;;;6.50;70.40;;;;;;5011333;28;20116;-74
2021/01/26 10:16:29;;;;;;;8.18;7.05;;;6.60;70.40;;;;;;5009901;28;20042;-74
2021/01/26 10:18:57;;;;;;;7.00;6.07;;;6.70;70.70;;;;;;4996039;28;20101;-75
2021/01/26 10:21:29;;;;;;;7.50;5.93;;;6.90;70.50;;;;;;4999132;28;20510;-75
2021/01/26 10:24:03;;;;;;;8.45;7.55;;;6.90;70.50;;;;;;5000405;28;20494;-75
2021/01/26 10:26:39;;;;;;;6.57;5.88;;;7.00;70.50;;;;;;5015328;28;20025;-74
2021/01/26 10:29:10;;;;;;;7.28;6.13;;;7.10;70.50;;;;;;5012053;28;20095;-74
2021/01/26 10:31:48;;;;;;;5.93;5.32;;;7.20;70.60;;;;;;5001580;28;20048;-74
2021/01/26 10:34:44;;;;;;;6.97;5.80;;;7.30;70.60;;;;;;5001132;28;20100;-75
2021/01/26 10:37:23;;;;;;;6.32;5.47;;;7.30;70.60;;;;;;4984757;28;20373;-75
2021/01/26 10:40:10;;;;;;;6.55;5.60;;;7.50;70.60;;;;;;5000613;28;20110;-75
2021/01/26 10:42:35;;;;;;;7.57;5.35;;;7.60;70.60;;;;;;5001150;28;20044;-74
2021/01/26 10:45:02;;;;;;;5.32;4.80;;;7.70;70.50;;;;;;5004424;28;20453;-76
2021/01/26 10:47:32;;;;;;;6.57;5.28;;;7.70;70.40;;;;;;5001609;28;20038;-75
2021/01/26 10:50:01;;;;;;;5.95;5.18;;;7.80;70.30;;;;;;5002155;28;20518;-75
2021/01/26 10:52:49;;;;;;;6.45;5.53;;;8.00;70.40;;;;;;4982213;28;20038;-75
2021/01/26 10:55:22;;;;;;;5.28;4.78;;;8.00;70.30;;;;;;4995179;28;20038;-75
2021/01/26 10:57:49;;;;;;;6.55;5.32;;;8.10;70.40;;;;;;4999815;28;20491;-75
2021/01/26 11:00:22;;;;;;;5.75;4.90;;;8.10;70.40;;;;;;4996895;28;20038;-76
2021/01/26 11:02:55;;;;;;;5.97;4.78;;;8.20;70.50;;;;;;4998122;28;20373;-74
2021/01/26 11:05:23;;;;;;;6.35;5.55;;;8.30;70.60;;;;;;4998338;28;20034;-75
2021/01/26 11:07:49;;;;;;;6.65;5.30;;;8.40;70.60;;;;;;5001311;28;20125;-75
2021/01/26 11:10:16;;;;;;;5.22;4.63;;;8.60;70.40;;;;;;4996756;28;20072;-75
2021/01/26 11:12:41;;;;;;;5.50;4.60;;;8.50;70.00;;;;;;5002371;28;20029;-75
2021/01/26 11:15:13;;;;;;;5.32;4.65;;;8.60;69.90;;;;;;5011580;28;20079;-75
2021/01/26 11:17:39;;;;;;;6.95;5.53;;;8.60;69.60;;;;;;5013058;28;20037;-74
2021/01/26 11:20:06;;;;;;;7.13;4.82;;;8.70;69.40;;;;;;4992690;28;20034;-75
2021/01/26 11:22:32;;;;;;;5.38;4.32;;;8.70;69.20;;;;;;4994242;28;20034;-75
2021/01/26 11:24:58;;;;;;;4.88;4.25;;;8.80;69.10;;;;;;4994083;28;20136;-75
2021/01/26 11:27:23;;;;;;;4.60;4.15;;;8.70;69.00;;;;;;4990789;28;20500;-76
2021/01/26 11:29:49;;;;;;;5.05;4.38;;;8.70;68.90;;;;;;4988650;28;20117;-74
2021/01/26 11:32:15;;;;;;;5.25;4.50;;;8.70;68.80;;;;;;4988994;28;20031;-76
2021/01/26 11:34:41;;;;;;;6.50;4.28;;;8.70;68.90;;;;;;4989489;28;20037;-75
2021/01/26 11:37:06;;;;;;;5.88;5.28;;;8.70;69.00;;;;;;5009606;28;20491;-75
2021/01/26 11:39:32;;;;;;;6.40;4.57;;;8.70;69.20;;;;;;4983776;28;20041;-75
2021/01/26 11:41:57;;;;;;;4.60;3.92;;;8.70;69.30;;;;;;4990393;28;20035;-74
2021/01/26 11:44:23;;;;;;;4.03;3.38;;;8.70;69.40;;;;;;4992095;28;20030;-77
2021/01/26 11:46:48;;;;;;;4.72;3.88;;;8.80;69.30;;;;;;4994669;28;20125;-74
2021/01/26 11:49:14;;;;;;;5.05;4.10;;;8.70;69.00;;;;;;4974618;28;20035;-75
2021/01/26 11:51:39;;;;;;;3.88;3.47;;;8.70;68.90;;;;;;4991866;28;20030;-74
2021/01/26 11:54:05;;;;;;;4.60;3.97;;;8.80;68.80;;;;;;4994522;28;20037;-76
2021/01/26 11:56:31;;;;;;;5.90;4.38;;;8.80;68.70;;;;;;5014261;28;20034;-75
2021/01/26 11:58:56;;;;;;;5.80;4.25;;;8.90;68.70;;;;;;5017432;28;20394;-75
2021/01/26 12:01:22;;;;;;;4.78;3.90;;;8.80;68.60;;;;;;5001435;28;20045;-74
2021/01/26 12:03:47;;;;;;;4.90;4.30;;;8.80;68.70;;;;;;5004650;28;20030;-75
2021/01/26 12:06:13;;;;;;;4.78;4.28;;;8.80;68.90;;;;;;5020320;28;20036;-75
2021/01/26 12:08:38;;;;;;;5.28;4.38;;;8.80;68.90;;;;;;5017017;28;20502;-76
2021/01/26 12:11:05;;;;;;;5.20;3.97;;;8.80;69.00;;;;;;5010036;28;20033;-75
2021/01/26 12:13:31;;;;;;;5.30;4.03;;;8.80;69.00;;;;;;5014103;28;20403;-75
2021/01/26 12:15:57;;;;;;;4.68;3.80;;;8.90;69.10;;;;;;5022783;28;20052;-74
2021/01/26 12:18:22;;;;;;;4.43;3.60;;;8.90;69.10;;;;;;5015929;28;20045;-75
2021/01/26 12:20:48;;;;;;;6.78;4.03;;;8.90;69.00;;;;;;5020517;28;20033;-75
2021/01/26 12:23:13;;;;;;;5.50;4.13;;;9.00;68.90;;;;;;4981698;28;20038;-76
2021/01/26 12:25:42;;;;;;;4.38;3.50;;;8.90;68.70;;;;;;4995916;28;20042;-76
2021/01/26 12:28:09;;;;;;;5.03;3.72;;;9.00;68.70;;;;;;4995931;28;20034;-75
2021/01/26 12:30:34;;;;;;;4.55;3.53;;;9.10;68.60;;;;;;5018822;28;20117;-74
2021/01/26 12:33:00;;;;;;;5.40;3.42;;;9.00;68.50;;;;;;4999673;28;20130;-75
2021/01/26 12:35:34;;;;;;;3.97;3.33;;;9.00;68.50;;;;;;4996700;28;20026;-76
2021/01/26 12:38:01;;;;;;;2.47;1.60;;;9.10;68.00;;;;;;4993911;28;20030;-75
2021/01/26 12:40:27;;;;;;;1.73;1.20;;;9.00;67.50;;;;;;4997118;28;20052;-76
2021/01/26 12:42:52;;;;;;;1.50;0.80;;;9.00;67.00;;;;;;4996156;28;20664;-77
2021/01/26 12:45:21;;;;;;;2.28;0.80;;;8.90;66.70;;;;;;4999558;28;20117;-75
2021/01/26 12:47:47;;;;;;;1.08;0.90;;;8.80;66.60;;;;;;5007748;28;20043;-74
2021/01/26 12:50:17;;;;;;;0.35;0.30;;;8.70;66.40;;;;;;4998342;28;20492;-74
2021/01/26 12:52:43;;;;;;;0.50;0.35;;;8.60;66.30;;;;;;5002900;28;20038;-75
2021/01/26 12:55:09;;;;;;;0.63;0.30;;;8.50;66.50;;;;;;5005809;28;20080;-74
2021/01/26 12:57:35;;;;;;;0.20;0.20;;;8.40;66.50;;;;;;4990635;28;20052;-74
2021/01/26 13:00:01;;;;;;;0.47;0.30;;;8.40;66.60;;;;;;5005542;28;20034;-74
2021/01/26 13:02:27;;;;;;;0.40;0.20;;;8.20;66.60;;;;;;5001753;28;20042;-73
2021/01/26 13:04:54;;;;;;;0.20;0.20;;;8.20;66.70;;;;;;5006301;28;20022;-73
2021/01/26 13:07:20;;;;;;;0.40;0.40;;;8.10;66.80;;;;;;5009188;28;20124;-72
2021/01/26 13:09:46;;;;;;;0.77;0.45;;;8.00;67.00;;;;;;5007286;28;20045;-76
2021/01/26 13:12:12;;;;;;;0.57;0.47;;;7.90;67.20;;;;;;4997137;28;20031;-74
2021/01/26 13:14:41;;;;;;;0.80;0.65;;;7.90;67.50;;;;;;4997699;28;20030;-72
2021/01/26 13:17:08;;;;;;;1.02;0.88;;;7.80;67.60;;;;;;4998450;28;20085;-73
2021/01/26 13:19:33;;;;;;;1.27;0.90;;;7.90;67.80;;;;;;5000946;28;20061;-73
2021/01/26 13:21:59;;;;;;;0.95;0.80;;;7.70;67.90;;;;;;4980443;28;20050;-72
2021/01/26 13:24:25;;;;;;;1.45;0.93;;;7.70;68.00;;;;;;4997375;28;20033;-73
2021/01/26 13:26:51;;;;;;;1.98;1.27;;;7.70;68.10;;;;;;4997143;28;20022;-73
2021/01/26 13:29:16;;;;;;;1.13;0.90;;;7.70;68.20;;;;;;4998490;28;20041;-73
2021/01/26 13:31:41;;;;;;;1.60;1.38;;;7.60;68.20;;;;;;5004129;28;20038;-72
2021/01/26 13:34:07;;;;;;;1.65;1.20;;;7.60;68.30;;;;;;4990561;28;20033;-73
2021/01/26 13:36:33;;;;;;;1.92;1.30;;;7.60;68.30;;;;;;5012788;28;20410;-73